Rexburg, ID (83440)

5:11 PM MDT on October 31, 2014 (GMT -0600)
Rexburg-Madison County | Change Station
CLOSE
Current Station
Airport
Location: Rexburg,
Elevation: 4859 ft
Nearby Weather Stations

Elev 4859 ft 43.83 °N, 111.81 °W | Updated 18 minutes ago

Clear
Clear
67 °F
Feels Like 67 °F
N
14
Wind Variable Wind from SW
Gusts 23 mph

Today
High -- | Low -- °F
--% Chance of Precip.
Yesterday
High -- | Low -- °F
Precip. -- in
8:02 AM 6:18 PM
First Quarter, 60% visible
Pressure 29.82 in
Visibility 10.0 miles
Clouds Clear
Dew Point 25 °F
Humidity 21%
Rainfall 0.00 in
Snow Depth Not available.
UV 1 out of 12
Pollen 2.80 out of 12
Air Quality Not available.
Flu Activity Not available.
METAR KRXE 312253Z AUTO 22012G20KT 10SM CLR 19/M04 A2987 RMK AO2 SLP097 T01941039

More Conditions Fewer Conditions

Pressure 29.82 in
Visibility 10.0 miles
Clouds Clear
Dew Point 25 °F
Humidity 21%
Rainfall 0.00 in
Snow Depth Not available.
UV 1 out of 12
Pollen 2.80 out of 12
Air Quality Not available.
Flu Activity Not available.
METAR KRXE 312253Z AUTO 22012G20KT 10SM CLR 19/M04 A2987 RMK AO2 SLP097 T01941039

More Conditions Fewer Conditions

10-Day Weather Forecast

Almanac

Astronomy

Oct. 31, 2014 Rise Set
Actual Time
Civil Twilight
Nautical Twilight
Astronomical Twilight
Moon
Length of Visible Light
Length of Day
Tomorrow will be .
, % of the Moon is Illuminated

Today's Extremes

State Highs State Lows

Community

WunderPhotos

Upload Photos

1,766,775 photos uploaded!

WunderBlogs® & News

Nearby

Air Quality

  Air Quality AQ Index Pollutant
Not available.

Snow Depth

Station Depth Elevation

Earthquake Activity

City Distance Mag. Time & Date
Minimum magnitude displayed is 2.5.

Coastal Water Temperatures

Place Temperature

Nearby Weather Stations